Scotia — MXHR6 — position and weather

sailwx.info

Track history (hours):
 
Tides and Currents Weather Stations Pressure Air Temp Water Temp Dewpoint Dewpoint Depression Visibility Wind Speed Wind Dir Waves Ship Positions

Oceanographic research ship Scotia (UK)

Detailed information on ship capabilities available from University of Delaware's Ocean Information Center.

Last reported at 2020-Aug-06 21:22 UTC. Time now 2020-Aug-07 09:27 UTC.
Position N 57°34' W 001°05'.

Length 68.6 m; beam 15 m; draft 5.6 m.

Type: Other ship. MMSI: 234973000.

Date/timePositionNaut miles runAvg speedWind from/ knotsBaromVisibWave heightAir tempDewpointWater temp
2020-Aug-06 21:22N 57°34' W 001°05'11 8.4
2020-Aug-06 20:01N 57°27' W 001°21'35 8.7
2020-Aug-06 16:01N 56°58' W 001°58'39 3.9
2020-Aug-06 05:55N 56°24' W 001°22'45 4.6
2020-Aug-05 20:01N 55°39' W 001°14'5 9.4
2020-Aug-05 19:31N 55°35' W 001°14'16 8.0
2020-Aug-05 17:30N 55°19' W 001°14'19 5.3
2020-Aug-05 13:56N 55°36' W 001°02'  
2020-Aug-01 09:18N 56°51' E 004°13'30 7.8
2020-Aug-01 05:30N 57°14' E 004°47'13 5.1
2020-Aug-01 03:00N 57°16' E 005°11'4 7.4
2020-Aug-01 02:30N 57°14' E 005°05'18 9.0
2020-Aug-01 00:30N 57°05' E 004°36'4 8.9
2020-Aug-01 00:00N 57°03' E 004°29'24 9.7
2020-Jul-31 21:30N 56°51' E 003°50'3510.1
2020-Jul-31 18:00N 56°32' E 002°56'16 5.5
2020-Jul-31 15:09N 56°26' E 002°30'147 4.9
2020-Jul-30 09:00N 57°04' W 001°50'1 1.8
2020-Jul-30 08:30N 57°04' W 001°51'9 3.6
2020-Jul-30 05:58N 57°09' W 002°05'0 0.0
2020-Jul-30 03:58N 57°09' W 002°05'0 0.0
2020-Jul-29 20:58N 57°09' W 002°05'0 0.0
2020-Jul-29 20:28N 57°09' W 002°05'0 0.0
2020-Jul-29 19:28N 57°09' W 002°05'0 0.0
2020-Jul-29 16:58N 57°09' W 002°05'0 0.0
2020-Jul-29 16:28N 57°09' W 002°05'0 0.0
2020-Jul-29 15:28N 57°09' W 002°05'0 0.0
2020-Jul-29 14:28N 57°09' W 002°05'0 0.0
2020-Jul-29 09:28N 57°09' W 002°05'0 0.0
2020-Jul-29 04:58N 57°09' W 002°05'0 0.0
2020-Jul-29 02:58N 57°09' W 002°05'0 0.0
2020-Jul-29 00:58N 57°09' W 002°05'0 0.0
2020-Jul-28 23:28N 57°09' W 002°05'0 0.0
2020-Jul-28 19:28N 57°09' W 002°05'0 0.0
2020-Jul-28 16:58N 57°09' W 002°05'0 0.0
2020-Jul-28 14:58N 57°09' W 002°05'0 0.0
2020-Jul-28 12:58N 57°09' W 002°05'0 0.0
2020-Jul-28 11:28N 57°09' W 002°05'0 0.0
2020-Jul-28 10:58N 57°09' W 002°05'0 0.0
2020-Jul-28 10:28N 57°09' W 002°05'0 0.0
2020-Jul-28 09:28N 57°09' W 002°05'0 0.0
2020-Jul-28 06:28N 57°09' W 002°05'0 0.0
2020-Jul-28 05:28N 57°09' W 002°05'0 0.0
2020-Jul-28 01:28N 57°09' W 002°05'0 0.0
2020-Jul-27 22:58N 57°09' W 002°05'  
Track history (hours):
 
Tides and Currents Weather Stations Pressure Air Temp Water Temp Dewpoint Dewpoint Depression Visibility Wind Speed Wind Dir Waves Ship Positions

Oceanographic research ship Scotia (UK)

Detailed information on ship capabilities available from University of Delaware's Ocean Information Center.

Last reported at 2020-Aug-06 21:22 UTC. Time now 2020-Aug-07 09:27 UTC.
Position N 57°34' W 001°05'.

Length 68.6 m; beam 15 m; draft 5.6 m.

Type: Other ship. MMSI: 234973000.

Date/timePositionNaut miles runAvg speedWind from/ knotsBaromVisibWave heightAir tempDewpointWater temp
2020-Aug-06 21:22N 57°34' W 001°05'11 8.4
2020-Aug-06 20:01N 57°27' W 001°21'35 8.7
2020-Aug-06 16:01N 56°58' W 001°58'39 3.9
2020-Aug-06 05:55N 56°24' W 001°22'45 4.6
2020-Aug-05 20:01N 55°39' W 001°14'5 9.4
2020-Aug-05 19:31N 55°35' W 001°14'16 8.0
2020-Aug-05 17:30N 55°19' W 001°14'19 5.3
2020-Aug-05 13:56N 55°36' W 001°02'  
2020-Aug-01 09:18N 56°51' E 004°13'30 7.8
2020-Aug-01 05:30N 57°14' E 004°47'13 5.1
2020-Aug-01 03:00N 57°16' E 005°11'4 7.4
2020-Aug-01 02:30N 57°14' E 005°05'18 9.0
2020-Aug-01 00:30N 57°05' E 004°36'4 8.9
2020-Aug-01 00:00N 57°03' E 004°29'24 9.7
2020-Jul-31 21:30N 56°51' E 003°50'3510.1
2020-Jul-31 18:00N 56°32' E 002°56'16 5.5
2020-Jul-31 15:09N 56°26' E 002°30'147 4.9
2020-Jul-30 09:00N 57°04' W 001°50'1 1.8
2020-Jul-30 08:30N 57°04' W 001°51'9 3.6
2020-Jul-30 05:58N 57°09' W 002°05'0 0.0
2020-Jul-30 03:58N 57°09' W 002°05'0 0.0
2020-Jul-29 20:58N 57°09' W 002°05'0 0.0
2020-Jul-29 20:28N 57°09' W 002°05'0 0.0
2020-Jul-29 19:28N 57°09' W 002°05'0 0.0
2020-Jul-29 16:58N 57°09' W 002°05'0 0.0
2020-Jul-29 16:28N 57°09' W 002°05'0 0.0
2020-Jul-29 15:28N 57°09' W 002°05'0 0.0
2020-Jul-29 14:28N 57°09' W 002°05'0 0.0
2020-Jul-29 09:28N 57°09' W 002°05'0 0.0
2020-Jul-29 04:58N 57°09' W 002°05'0 0.0
2020-Jul-29 02:58N 57°09' W 002°05'0 0.0
2020-Jul-29 00:58N 57°09' W 002°05'0 0.0
2020-Jul-28 23:28N 57°09' W 002°05'0 0.0
2020-Jul-28 19:28N 57°09' W 002°05'0 0.0
2020-Jul-28 16:58N 57°09' W 002°05'0 0.0
2020-Jul-28 14:58N 57°09' W 002°05'0 0.0
2020-Jul-28 12:58N 57°09' W 002°05'0 0.0
2020-Jul-28 11:28N 57°09' W 002°05'0 0.0
2020-Jul-28 10:58N 57°09' W 002°05'0 0.0
2020-Jul-28 10:28N 57°09' W 002°05'0 0.0
2020-Jul-28 09:28N 57°09' W 002°05'0 0.0
2020-Jul-28 06:28N 57°09' W 002°05'0 0.0
2020-Jul-28 05:28N 57°09' W 002°05'0 0.0
2020-Jul-28 01:28N 57°09' W 002°05'0 0.0
2020-Jul-27 22:58N 57°09' W 002°05'  

Dump ship's entire track history